Time;durP1;ratioP1;P1;durP2;ratioP2;P2;SDS_P1;SDS_P2;PMS_P1;PMS_P2;Temp;Humidity;BMP_temperature;BMP_pressure;BME280_temperature;BME280_humidity;BME280_pressure;Samples;Min_cycle;Max_cycle;Signal;HPM_P1;HPM_P2
2021/04/21 00:00:01;;;;;;;12.50;7.93;;;11.50;84.70;;;;;;5113755;23;20457;-83
2021/04/21 00:02:03;;;;;;;11.67;8.63;;;11.50;84.90;;;;;;5113607;23;20779;-83
2021/04/21 00:04:06;;;;;;;10.13;8.20;;;11.40;85.10;;;;;;5122014;23;20447;-83
2021/04/21 00:06:09;;;;;;;12.10;8.47;;;11.40;85.10;;;;;;5112701;23;20543;-83
2021/04/21 00:08:11;;;;;;;15.17;9.37;;;11.40;85.10;;;;;;5113160;23;20466;-82
2021/04/21 00:10:14;;;;;;;13.30;8.80;;;11.50;85.20;;;;;;5103489;23;20457;-82
2021/04/21 00:12:18;;;;;;;9.80;7.73;;;11.40;85.20;;;;;;5116442;23;20493;-82
2021/04/21 00:14:23;;;;;;;11.80;8.07;;;11.50;85.20;;;;;;5110978;23;21259;-82
2021/04/21 00:16:25;;;;;;;11.43;8.20;;;11.50;85.20;;;;;;5105892;23;20510;-83
2021/04/21 00:18:28;;;;;;;11.30;8.30;;;11.50;85.30;;;;;;5108864;23;20534;-83
2021/04/21 00:20:31;;;;;;;10.50;8.00;;;11.40;85.50;;;;;;5108769;23;20479;-83
2021/04/21 00:22:34;;;;;;;12.73;8.40;;;11.40;85.60;;;;;;5117901;23;20455;-83
2021/04/21 00:24:40;;;;;;;14.70;8.03;;;11.40;85.80;;;;;;5117635;23;20474;-82
2021/04/21 00:26:44;;;;;;;14.10;8.67;;;11.40;85.90;;;;;;5108839;23;20451;-83
2021/04/21 00:28:47;;;;;;;11.17;8.40;;;11.40;86.00;;;;;;5109243;23;20440;-83
2021/04/21 00:30:51;;;;;;;9.10;7.37;;;11.30;86.20;;;;;;5109070;23;20826;-84
2021/04/21 00:32:55;;;;;;;12.37;8.70;;;11.30;86.20;;;;;;5110349;23;20931;-82
2021/04/21 00:34:58;;;;;;;10.43;8.20;;;11.30;86.30;;;;;;5117823;23;20490;-83
2021/04/21 00:37:00;;;;;;;13.97;8.93;;;11.30;86.50;;;;;;5107496;23;20516;-82
2021/04/21 00:39:04;;;;;;;10.17;8.07;;;11.20;86.50;;;;;;5115743;23;20447;-82
2021/04/21 00:41:13;;;;;;;11.47;8.13;;;11.20;86.60;;;;;;5106862;23;20444;-82
2021/04/21 00:43:25;;;;;;;14.80;8.30;;;11.20;86.70;;;;;;5106665;23;20450;-83
2021/04/21 00:45:36;;;;;;;14.27;8.07;;;11.10;86.80;;;;;;5107164;23;20465;-82
2021/04/21 00:47:45;;;;;;;10.10;7.97;;;11.10;87.00;;;;;;5106599;23;20457;-83
2021/04/21 00:49:55;;;;;;;11.00;7.77;;;11.10;87.00;;;;;;5105838;23;20488;-83
2021/04/21 00:52:02;;;;;;;10.67;7.73;;;11.10;87.10;;;;;;5093612;23;20458;-83
2021/04/21 00:54:13;;;;;;;9.90;7.60;;;11.00;87.20;;;;;;5093338;23;20435;-81
2021/04/21 00:56:23;;;;;;;11.90;7.30;;;11.00;87.40;;;;;;5102128;23;20461;-81
2021/04/21 00:58:36;;;;;;;11.40;8.60;;;11.00;87.40;;;;;;5093603;23;20436;-83
2021/04/21 01:00:43;;;;;;;12.20;8.10;;;11.00;87.20;;;;;;5102135;23;20458;-83
2021/04/21 01:02:49;;;;;;;9.43;8.10;;;11.00;87.40;;;;;;5094505;23;20429;-82
2021/04/21 01:04:52;;;;;;;10.10;8.50;;;11.00;87.40;;;;;;5102850;23;20513;-83
2021/04/21 01:06:55;;;;;;;12.70;8.47;;;11.00;87.60;;;;;;5101461;23;20442;-84
2021/04/21 01:09:01;;;;;;;13.10;8.60;;;10.90;87.50;;;;;;5101385;23;20451;-83
2021/04/21 01:11:10;;;;;;;9.93;8.30;;;10.90;87.70;;;;;;5093720;23;20455;-83
2021/04/21 01:13:14;;;;;;;10.30;7.80;;;10.90;87.80;;;;;;5094009;23;20816;-83
2021/04/21 01:15:17;;;;;;;11.50;8.07;;;10.90;87.80;;;;;;5094190;23;20461;-83
2021/04/21 01:17:22;;;;;;;8.87;7.77;;;10.90;87.70;;;;;;5102163;23;20482;-83
2021/04/21 01:19:42;;;;;;;12.00;9.53;;;10.90;87.90;;;;;;5101348;23;20451;-83
2021/04/21 01:21:48;;;;;;;12.20;7.80;;;10.90;87.60;;;;;;5101855;23;20524;-84
2021/04/21 01:24:12;;;;;;;15.53;8.40;;;10.80;87.60;;;;;;5100705;23;20425;-83
2021/04/21 01:26:42;;;;;;;9.80;7.77;;;10.90;87.60;;;;;;5100980;23;20819;-83
2021/04/21 01:28:51;;;;;;;16.90;8.00;;;10.90;87.70;;;;;;5076120;23;20437;-81
2021/04/21 01:30:55;;;;;;;11.20;7.53;;;10.80;87.60;;;;;;5093711;23;20429;-83
2021/04/21 01:33:00;;;;;;;11.23;8.20;;;10.70;88.00;;;;;;5093209;23;20436;-82
2021/04/21 01:35:04;;;;;;;8.67;6.90;;;10.70;88.20;;;;;;5093331;23;20713;-84
2021/04/21 01:37:08;;;;;;;10.80;7.30;;;10.60;88.00;;;;;;5101161;23;20425;-83
2021/04/21 01:39:12;;;;;;;10.90;7.77;;;10.70;88.20;;;;;;5099416;23;20513;-83
2021/04/21 01:41:18;;;;;;;11.63;7.40;;;10.70;88.00;;;;;;5100654;23;20443;-84
2021/04/21 01:43:22;;;;;;;13.00;8.33;;;10.70;88.00;;;;;;5093337;23;20542;-82
2021/04/21 01:45:28;;;;;;;9.27;7.70;;;10.70;88.00;;;;;;5092734;23;20454;-83
2021/04/21 01:47:31;;;;;;;14.17;7.47;;;10.70;87.90;;;;;;5092891;23;20433;-81
2021/04/21 01:50:02;;;;;;;10.10;7.50;;;10.70;88.00;;;;;;5101156;23;20453;-82
2021/04/21 01:52:11;;;;;;;9.80;7.17;;;10.60;88.20;;;;;;5093032;23;21006;-82
2021/04/21 01:54:16;;;;;;;13.40;7.30;;;10.60;87.90;;;;;;5092156;23;20930;-84
2021/04/21 01:56:25;;;;;;;10.27;7.63;;;10.70;87.80;;;;;;5100163;23;20526;-83
2021/04/21 01:58:33;;;;;;;11.30;7.90;;;10.70;87.70;;;;;;5099698;23;20806;-82
2021/04/21 02:00:39;;;;;;;13.40;8.03;;;10.60;87.50;;;;;;5091284;23;20448;-84
2021/04/21 02:02:45;;;;;;;9.03;7.13;;;10.60;87.50;;;;;;5092184;23;20433;-83
2021/04/21 02:04:58;;;;;;;12.10;8.00;;;10.50;87.80;;;;;;5103179;23;20454;-83
2021/04/21 02:07:09;;;;;;;8.03;6.70;;;10.30;87.90;;;;;;5093208;23;20477;-82
2021/04/21 02:09:40;;;;;;;12.00;8.27;;;10.30;87.90;;;;;;5100922;23;20455;-83
2021/04/21 02:11:49;;;;;;;9.13;7.17;;;10.30;87.80;;;;;;5094899;23;20457;-83
2021/04/21 02:14:04;;;;;;;9.37;7.40;;;10.20;87.90;;;;;;5095513;23;20448;-82
2021/04/21 02:16:18;;;;;;;10.40;7.60;;;10.00;88.70;;;;;;5102827;23;20421;-82
2021/04/21 02:18:27;;;;;;;9.93;8.33;;;10.00;88.70;;;;;;5102001;23;20458;-81
2021/04/21 02:20:34;;;;;;;12.73;7.30;;;9.90;88.50;;;;;;5102780;23;20712;-83
2021/04/21 02:22:43;;;;;;;12.40;7.70;;;9.80;89.00;;;;;;5094260;23;20424;-83
2021/04/21 02:24:55;;;;;;;10.27;7.30;;;9.70;89.40;;;;;;5094625;23;20456;-82
2021/04/21 02:27:05;;;;;;;12.13;8.43;;;9.70;89.70;;;;;;5103777;23;20461;-83
2021/04/21 02:29:16;;;;;;;9.50;7.50;;;9.70;90.00;;;;;;5094891;23;20669;-83
2021/04/21 02:31:27;;;;;;;12.33;7.70;;;9.80;89.80;;;;;;5095026;23;20455;-81
2021/04/21 02:33:38;;;;;;;12.43;7.37;;;9.80;89.80;;;;;;5102652;23;20454;-82
2021/04/21 02:35:45;;;;;;;14.50;8.00;;;9.90;89.50;;;;;;5102440;23;20470;-83
2021/04/21 02:38:03;;;;;;;9.50;7.40;;;10.10;89.50;;;;;;5093522;23;20433;-83
2021/04/21 02:40:14;;;;;;;9.80;7.10;;;10.20;89.10;;;;;;5102774;23;20425;-81
2021/04/21 02:42:24;;;;;;;9.70;7.70;;;10.20;88.80;;;;;;5102313;23;20422;-81
2021/04/21 02:44:37;;;;;;;14.33;8.20;;;10.20;89.00;;;;;;5102627;23;20450;-82
2021/04/21 02:46:58;;;;;;;17.30;8.10;;;10.10;88.70;;;;;;5102367;23;20421;-83
2021/04/21 02:49:15;;;;;;;10.47;7.87;;;10.10;89.00;;;;;;5093806;23;20429;-81
2021/04/21 02:51:24;;;;;;;13.80;8.00;;;10.10;89.10;;;;;;5102511;23;20447;-82
2021/04/21 02:53:32;;;;;;;9.17;7.20;;;10.10;89.00;;;;;;5103220;23;20429;-82
2021/04/21 02:55:48;;;;;;;13.20;9.23;;;10.20;88.70;;;;;;5102443;23;20428;-81
2021/04/21 02:58:04;;;;;;;11.60;8.23;;;10.20;88.60;;;;;;5102749;23;20425;-80
2021/04/21 03:00:08;;;;;;;10.80;7.80;;;10.10;88.80;;;;;;5102029;23;20444;-83
2021/04/21 03:02:17;;;;;;;10.10;8.13;;;10.10;89.00;;;;;;5102130;23;20433;-82
2021/04/21 03:04:27;;;;;;;11.33;8.10;;;10.20;89.00;;;;;;5092889;23;20429;-84
2021/04/21 03:06:32;;;;;;;11.90;8.00;;;10.10;89.10;;;;;;5092117;23;20454;-84
2021/04/21 03:08:40;;;;;;;9.10;8.00;;;10.10;89.30;;;;;;5100418;23;20534;-84
2021/04/21 03:10:45;;;;;;;10.43;7.73;;;10.00;89.30;;;;;;5092223;23;20537;-83
2021/04/21 03:12:54;;;;;;;11.00;8.20;;;10.00;89.50;;;;;;5091941;23;20433;-81
2021/04/21 03:15:02;;;;;;;11.13;8.50;;;10.00;89.40;;;;;;5100119;23;20434;-82
2021/04/21 03:17:08;;;;;;;9.27;8.27;;;10.10;89.50;;;;;;5091795;23;20756;-82
2021/04/21 03:19:14;;;;;;;16.80;9.20;;;10.00;89.60;;;;;;5100485;23;20454;-82
2021/04/21 03:21:20;;;;;;;11.17;8.40;;;10.00;89.70;;;;;;5100224;23;20793;-81
2021/04/21 03:23:23;;;;;;;12.73;8.07;;;10.00;89.90;;;;;;5099384;23;20485;-82
2021/04/21 03:25:29;;;;;;;13.60;8.43;;;10.00;90.10;;;;;;5099618;23;20429;-81
2021/04/21 03:27:35;;;;;;;13.90;9.23;;;9.90;90.20;;;;;;5100075;23;20436;-81
2021/04/21 03:29:40;;;;;;;15.73;9.00;;;9.90;90.40;;;;;;5099406;23;21118;-82
2021/04/21 03:31:44;;;;;;;14.50;9.70;;;9.90;90.40;;;;;;5091656;23;20564;-81
2021/04/21 03:33:50;;;;;;;13.03;10.20;;;9.80;90.80;;;;;;5100393;23;20921;-82
2021/04/21 03:35:53;;;;;;;12.77;9.90;;;9.70;91.20;;;;;;5099868;23;20432;-82
2021/04/21 03:38:01;;;;;;;16.87;9.70;;;9.70;91.40;;;;;;5100281;23;20438;-81
2021/04/21 03:40:05;;;;;;;15.87;9.90;;;9.70;91.50;;;;;;5100234;23;20424;-83
2021/04/21 03:42:07;;;;;;;10.87;9.57;;;9.80;91.50;;;;;;5092146;23;20440;-84
2021/04/21 03:44:09;;;;;;;12.97;9.70;;;9.80;91.50;;;;;;5099845;23;20460;-84
2021/04/21 03:46:12;;;;;;;11.87;9.60;;;9.70;91.80;;;;;;5092569;23;20433;-82
2021/04/21 03:48:16;;;;;;;12.70;9.53;;;9.80;92.00;;;;;;5092643;23;20432;-84
2021/04/21 03:50:18;;;;;;;16.47;10.90;;;9.70;92.00;;;;;;5101276;23;20425;-84
2021/04/21 03:52:23;;;;;;;13.17;10.50;;;9.70;92.30;;;;;;5100524;23;20520;-83
2021/04/21 03:54:27;;;;;;;13.50;10.90;;;9.70;92.30;;;;;;5093095;23;20429;-83
2021/04/21 03:56:30;;;;;;;15.90;12.10;;;9.70;92.40;;;;;;5100778;23;20426;-82
2021/04/21 03:58:33;;;;;;;15.70;9.80;;;9.70;92.50;;;;;;5092653;23;20455;-84
2021/04/21 04:00:37;;;;;;;11.93;8.80;;;9.60;93.10;;;;;;5100790;23;20458;-84
2021/04/21 04:02:44;;;;;;;14.03;9.70;;;9.50;93.50;;;;;;5101507;23;20504;-83
2021/04/21 04:04:51;;;;;;;15.50;9.97;;;9.40;93.90;;;;;;5104039;23;20422;-82
2021/04/21 04:07:00;;;;;;;17.07;10.63;;;9.30;94.20;;;;;;5102863;23;20418;-83
2021/04/21 04:09:04;;;;;;;19.97;14.57;;;9.30;94.40;;;;;;5095662;23;20852;-82
2021/04/21 04:11:12;;;;;;;22.23;14.60;;;9.30;94.60;;;;;;5098707;23;20454;-83
2021/04/21 04:13:15;;;;;;;22.80;11.50;;;9.30;94.70;;;;;;5098548;23;20429;-82
2021/04/21 04:15:19;;;;;;;17.63;12.30;;;9.30;94.80;;;;;;5098055;23;20456;-83
2021/04/21 04:17:22;;;;;;;18.03;12.10;;;9.40;94.60;;;;;;5092739;23;20436;-81
2021/04/21 04:19:25;;;;;;;18.30;12.50;;;9.40;94.60;;;;;;5092555;23;20434;-83
2021/04/21 04:21:36;;;;;;;13.67;11.77;;;9.40;94.70;;;;;;5099688;23;20454;-81
2021/04/21 04:23:40;;;;;;;15.37;11.50;;;9.40;94.80;;;;;;5115428;23;20458;-83
2021/04/21 04:25:46;;;;;;;15.20;10.53;;;9.40;95.00;;;;;;5108021;23;20458;-81
2021/04/21 04:27:52;;;;;;;13.90;9.87;;;9.30;95.20;;;;;;5108355;23;20450;-81
2021/04/21 04:29:58;;;;;;;17.93;12.53;;;9.30;95.50;;;;;;5108740;23;20455;-81
2021/04/21 04:32:03;;;;;;;20.43;11.60;;;9.20;95.80;;;;;;5107349;23;20464;-82
2021/04/21 04:34:06;;;;;;;20.50;14.03;;;9.20;96.00;;;;;;5112323;23;20471;-83
2021/04/21 04:36:09;;;;;;;17.33;13.30;;;9.20;96.10;;;;;;5094860;23;21000;-84
2021/04/21 04:38:20;;;;;;;16.60;12.53;;;9.30;95.80;;;;;;5092063;23;20440;-82
2021/04/21 04:40:23;;;;;;;15.07;12.17;;;9.40;95.80;;;;;;5092086;23;20454;-84
2021/04/21 04:42:26;;;;;;;14.97;10.33;;;9.40;95.60;;;;;;5091836;23;20433;-84
2021/04/21 04:44:29;;;;;;;14.20;9.93;;;9.40;95.70;;;;;;5100430;23;20792;-84
2021/04/21 04:46:32;;;;;;;15.30;10.40;;;9.40;95.80;;;;;;5101788;23;20451;-84
2021/04/21 04:48:44;;;;;;;14.90;11.13;;;9.30;96.00;;;;;;5102074;23;20915;-84
2021/04/21 04:50:49;;;;;;;14.77;10.70;;;9.30;96.30;;;;;;5094563;23;21028;-83
2021/04/21 04:52:53;;;;;;;18.80;10.80;;;9.20;96.70;;;;;;5094337;23;20625;-83
2021/04/21 04:54:57;;;;;;;15.53;10.20;;;9.20;97.10;;;;;;5094037;23;20462;-84
2021/04/21 04:56:59;;;;;;;16.60;11.00;;;9.10;97.70;;;;;;5102225;23;20439;-84
2021/04/21 04:59:04;;;;;;;14.93;10.90;;;9.10;97.70;;;;;;5094030;23;20517;-84
2021/04/21 05:01:07;;;;;;;16.73;11.03;;;9.10;97.90;;;;;;5093997;23;20489;-83
2021/04/21 05:03:15;;;;;;;15.50;10.93;;;9.20;97.90;;;;;;5102335;23;20447;-84
2021/04/21 05:05:18;;;;;;;15.23;11.73;;;9.20;98.00;;;;;;5101443;23;20500;-83
2021/04/21 05:07:25;;;;;;;14.50;11.37;;;9.10;98.30;;;;;;5094273;23;20455;-84
2021/04/21 05:09:30;;;;;;;13.70;11.03;;;9.20;98.30;;;;;;5101990;23;20447;-83
2021/04/21 05:11:36;;;;;;;16.83;11.53;;;9.20;98.30;;;;;;5093715;23;20480;-82
2021/04/21 05:13:40;;;;;;;13.70;10.73;;;9.30;98.30;;;;;;5093711;23;20461;-82
2021/04/21 05:16:26;;;;;;;17.80;11.50;;;9.30;98.30;;;;;;5093727;23;20433;-82
2021/04/21 05:19:11;;;;;;;15.27;10.63;;;9.30;98.30;;;;;;5091921;23;20518;-83
2021/04/21 05:21:53;;;;;;;19.17;12.77;;;9.50;98.30;;;;;;5101229;23;20795;-83
2021/04/21 05:24:33;;;;;;;17.50;11.80;;;9.60;98.30;;;;;;5066542;23;20446;-82
2021/04/21 05:27:21;;;;;;;17.30;12.47;;;9.60;98.30;;;;;;5093922;23;20433;-81
2021/04/21 05:29:55;;;;;;;14.40;11.47;;;9.60;98.30;;;;;;5071518;23;20508;-82
2021/04/21 05:32:39;;;;;;;17.83;12.20;;;9.60;98.30;;;;;;5102445;23;20812;-81
2021/04/21 05:35:18;;;;;;;20.83;13.93;;;9.60;98.30;;;;;;5070325;23;20458;-82
2021/04/21 05:37:59;;;;;;;17.30;13.10;;;9.70;98.30;;;;;;5093611;23;20454;-82
2021/04/21 05:40:42;;;;;;;18.70;13.77;;;9.80;98.30;;;;;;5093105;23;20982;-81
2021/04/21 05:43:20;;;;;;;22.10;13.67;;;9.90;98.30;;;;;;5093335;23;20431;-83
2021/04/21 05:46:02;;;;;;;24.50;13.60;;;10.00;98.10;;;;;;5100950;23;20447;-83
2021/04/21 05:48:50;;;;;;;20.30;12.63;;;10.00;97.90;;;;;;5092628;23;20446;-83
2021/04/21 05:51:32;;;;;;;18.47;12.40;;;10.10;97.90;;;;;;5092859;23;20944;-83
2021/04/21 05:54:08;;;;;;;20.57;12.53;;;10.20;97.80;;;;;;5067334;23;20461;-83
2021/04/21 05:56:46;;;;;;;17.57;12.20;;;10.30;97.70;;;;;;5100661;23;20842;-83
2021/04/21 05:59:20;;;;;;;19.80;13.33;;;10.30;97.40;;;;;;5092298;23;20435;-83
2021/04/21 06:01:30;;;;;;;17.20;12.30;;;10.40;97.60;;;;;;5100439;23;20455;-83
2021/04/21 06:03:34;;;;;;;21.00;12.60;;;10.40;97.50;;;;;;5092846;23;20513;-83
2021/04/21 06:05:36;;;;;;;17.83;13.07;;;10.50;97.40;;;;;;5093298;23;20430;-84
2021/04/21 06:07:38;;;;;;;17.63;12.47;;;10.70;96.90;;;;;;5093076;23;20448;-84
2021/04/21 06:09:42;;;;;;;18.13;13.63;;;10.80;96.80;;;;;;5102113;23;20486;-83
2021/04/21 06:11:44;;;;;;;17.23;13.30;;;10.80;96.80;;;;;;5102349;23;20428;-82
2021/04/21 06:13:46;;;;;;;19.33;13.57;;;10.90;96.90;;;;;;5102435;23;20994;-83
2021/04/21 06:15:50;;;;;;;42.93;27.20;;;11.00;97.00;;;;;;5094414;23;20426;-82
2021/04/21 06:17:56;;;;;;;58.20;34.63;;;11.20;97.30;;;;;;5093232;23;20429;-83
2021/04/21 06:19:58;;;;;;;39.00;25.40;;;11.30;97.00;;;;;;5101476;23;20448;-83
2021/04/21 06:22:01;;;;;;;23.33;15.87;;;11.40;96.70;;;;;;5094386;23;20461;-83
2021/04/21 06:24:17;;;;;;;19.13;13.53;;;11.50;96.50;;;;;;5092480;23;20512;-82
2021/04/21 06:26:23;;;;;;;45.50;27.63;;;11.60;96.40;;;;;;5101773;23;20429;-84
2021/04/21 06:28:25;;;;;;;50.20;34.57;;;11.70;96.40;;;;;;5093327;23;20500;-83
2021/04/21 06:30:27;;;;;;;64.10;39.50;;;11.80;96.10;;;;;;5102001;23;20429;-83
2021/04/21 06:32:29;;;;;;;25.60;20.30;;;11.90;96.10;;;;;;5094415;23;20514;-83
2021/04/21 06:34:32;;;;;;;27.50;15.77;;;12.00;95.90;;;;;;5093368;23;20458;-84
2021/04/21 06:36:38;;;;;;;21.40;14.40;;;12.00;95.70;;;;;;5092987;23;21004;-85
2021/04/21 06:38:42;;;;;;;16.47;13.43;;;12.10;95.90;;;;;;5093494;23;20516;-84
2021/04/21 06:40:45;;;;;;;16.00;13.93;;;12.20;95.30;;;;;;5092473;23;20454;-83
2021/04/21 06:42:49;;;;;;;18.70;14.17;;;12.10;95.20;;;;;;5092696;23;20440;-84
2021/04/21 06:44:54;;;;;;;19.80;13.73;;;12.20;95.20;;;;;;5100441;23;20467;-83
2021/04/21 06:46:56;;;;;;;17.70;15.43;;;12.20;95.50;;;;;;5100243;23;20453;-84
2021/04/21 06:49:00;;;;;;;16.10;13.97;;;12.20;95.40;;;;;;5099837;23;20422;-84
2021/04/21 06:51:09;;;;;;;15.63;13.50;;;12.40;94.80;;;;;;5091586;23;20998;-83
2021/04/21 06:53:12;;;;;;;49.37;30.83;;;12.50;94.80;;;;;;5099818;23;20443;-84
2021/04/21 06:55:16;;;;;;;39.10;25.20;;;12.60;94.70;;;;;;5091419;23;20482;-85
2021/04/21 06:57:28;;;;;;;29.27;22.80;;;12.80;94.50;;;;;;5100093;23;21202;-84
2021/04/21 06:59:31;;;;;;;28.23;22.20;;;12.80;94.40;;;;;;5092038;23;20788;-84
2021/04/21 07:01:33;;;;;;;15.87;13.23;;;12.80;94.30;;;;;;5093486;23;20457;-84
2021/04/21 07:03:35;;;;;;;17.40;13.20;;;12.90;94.20;;;;;;5092568;23;20454;-85
2021/04/21 07:05:41;;;;;;;23.17;17.37;;;13.00;94.10;;;;;;5082109;23;20565;-84
2021/04/21 07:07:43;;;;;;;20.97;14.97;;;12.90;94.60;;;;;;5093343;23;20453;-85
2021/04/21 07:09:47;;;;;;;48.47;33.53;;;12.90;94.80;;;;;;5095022;23;20944;-85
2021/04/21 07:11:57;;;;;;;45.17;31.50;;;12.90;95.00;;;;;;5099782;23;20482;-85
2021/04/21 07:13:59;;;;;;;17.87;14.60;;;13.10;94.80;;;;;;5099695;23;20529;-86
2021/04/21 07:16:04;;;;;;;15.67;12.57;;;13.10;94.80;;;;;;5091829;23;20529;-86
2021/04/21 07:18:13;;;;;;;14.90;13.30;;;13.10;95.10;;;;;;5099909;23;20529;-86
2021/04/21 07:20:16;;;;;;;18.20;13.30;;;13.10;95.20;;;;;;5100137;23;20924;-85
2021/04/21 07:22:25;;;;;;;18.77;14.17;;;13.20;95.40;;;;;;5100090;23;20513;-86
2021/04/21 07:24:30;;;;;;;14.97;13.07;;;13.20;95.20;;;;;;5100373;23;20478;-85
2021/04/21 07:26:38;;;;;;;19.13;13.90;;;13.30;95.40;;;;;;5092316;23;20497;-84
2021/04/21 07:28:41;;;;;;;15.60;13.57;;;13.40;95.40;;;;;;5092382;23;20448;-85
2021/04/21 07:30:44;;;;;;;20.40;14.83;;;13.50;95.30;;;;;;5100375;23;20445;-85
2021/04/21 07:32:47;;;;;;;18.10;13.57;;;13.40;95.40;;;;;;5092385;23;20857;-84
2021/04/21 07:35:04;;;;;;;17.20;15.20;;;13.50;95.40;;;;;;5093285;23;20513;-84
2021/04/21 07:37:06;;;;;;;17.20;14.40;;;13.70;95.40;;;;;;5093160;23;20451;-85
2021/04/21 07:39:09;;;;;;;51.80;34.30;;;13.70;95.10;;;;;;5092821;23;20541;-84
2021/04/21 07:41:13;;;;;;;44.60;32.17;;;13.70;95.00;;;;;;5102161;23;20454;-84
2021/04/21 07:43:17;;;;;;;40.83;27.90;;;13.90;95.30;;;;;;5094047;23;20482;-84
2021/04/21 07:45:21;;;;;;;25.67;20.00;;;13.90;95.40;;;;;;5101063;23;20450;-84
2021/04/21 07:47:26;;;;;;;27.80;20.50;;;13.90;95.90;;;;;;5101659;23;20478;-84
2021/04/21 07:49:35;;;;;;;24.07;16.80;;;13.90;96.30;;;;;;5101749;23;20522;-84
2021/04/21 07:51:43;;;;;;;27.20;19.33;;;13.90;96.50;;;;;;5103394;23;20455;-84
2021/04/21 07:53:46;;;;;;;29.00;20.10;;;14.10;96.40;;;;;;5094721;23;20529;-83
2021/04/21 07:55:48;;;;;;;27.67;19.90;;;14.10;96.20;;;;;;5094166;23;20538;-85
2021/04/21 07:57:58;;;;;;;28.53;19.70;;;14.10;95.90;;;;;;5101670;23;20447;-85
2021/04/21 08:00:01;;;;;;;24.90;20.70;;;14.10;96.00;;;;;;5100421;23;20485;-84
2021/04/21 08:02:09;;;;;;;25.13;18.27;;;14.20;96.30;;;;;;5101390;23;20478;-84
2021/04/21 08:04:25;;;;;;;24.70;19.30;;;14.40;95.70;;;;;;5101014;23;20775;-84
2021/04/21 08:06:40;;;;;;;24.37;18.50;;;14.40;94.90;;;;;;5100700;23;20478;-86
2021/04/21 08:08:44;;;;;;;31.93;22.70;;;14.30;95.00;;;;;;5107002;23;20450;-85
2021/04/21 08:10:48;;;;;;;55.10;38.37;;;14.10;95.40;;;;;;5105944;23;20513;-84
2021/04/21 08:12:52;;;;;;;74.27;48.13;;;14.10;96.00;;;;;;5101179;23;20505;-85
2021/04/21 08:14:58;;;;;;;25.93;20.37;;;13.90;96.90;;;;;;5102584;23;20484;-84
2021/04/21 08:17:08;;;;;;;23.33;19.77;;;13.80;97.50;;;;;;5093063;23;20487;-85
2021/04/21 08:19:12;;;;;;;27.63;21.07;;;13.70;97.90;;;;;;5092201;23;21238;-85
2021/04/21 08:21:36;;;;;;;30.57;22.63;;;13.80;98.00;;;;;;5100252;23;20451;-85
2021/04/21 08:24:00;;;;;;;27.63;21.10;;;14.00;98.10;;;;;;5099740;23;20446;-83
2021/04/21 08:26:57;;;;;;;31.43;24.33;;;14.40;97.60;;;;;;5101941;23;20451;-86
2021/04/21 08:29:01;;;;;;;30.57;21.07;;;14.50;96.90;;;;;;5035263;23;20443;-84
2021/04/21 08:31:03;;;;;;;28.53;22.30;;;14.30;97.30;;;;;;5101402;23;20948;-87
2021/04/21 08:33:07;;;;;;;29.80;24.80;;;14.20;97.60;;;;;;5101464;23;20470;-84
2021/04/21 08:35:12;;;;;;;28.43;22.93;;;14.00;98.00;;;;;;5101618;23;20449;-85
2021/04/21 08:37:14;;;;;;;30.50;22.90;;;13.80;98.30;;;;;;5102306;23;20443;-84
2021/04/21 08:39:17;;;;;;;24.97;21.57;;;13.60;98.30;;;;;;5101372;23;20482;-83
2021/04/21 08:41:20;;;;;;;29.87;20.60;;;13.70;98.30;;;;;;5101387;23;20541;-84
2021/04/21 08:43:26;;;;;;;30.20;21.30;;;13.70;98.30;;;;;;5101733;23;20527;-84
2021/04/21 08:45:28;;;;;;;28.13;22.00;;;13.70;98.30;;;;;;5101644;23;20538;-84
2021/04/21 08:47:34;;;;;;;27.83;21.80;;;13.70;98.30;;;;;;5100176;23;20541;-86
2021/04/21 08:49:41;;;;;;;29.90;21.77;;;13.70;98.30;;;;;;5106132;23;20485;-83
2021/04/21 08:51:46;;;;;;;29.37;20.97;;;13.70;98.30;;;;;;5108233;23;20522;-84
2021/04/21 08:54:03;;;;;;;31.70;22.87;;;13.70;98.30;;;;;;5095800;23;20987;-84
2021/04/21 08:56:13;;;;;;;26.43;21.57;;;13.80;98.30;;;;;;5102381;23;20535;-85
2021/04/21 08:58:16;;;;;;;32.40;22.20;;;13.80;98.30;;;;;;5102538;23;20533;-85
2021/04/21 09:00:19;;;;;;;31.77;25.17;;;13.90;98.30;;;;;;5101570;23;20491;-84
2021/04/21 09:02:21;;;;;;;27.10;22.70;;;14.00;98.30;;;;;;5102656;23;20534;-84
2021/04/21 09:04:23;;;;;;;33.30;25.33;;;14.00;98.30;;;;;;5102919;23;20519;-85
2021/04/21 09:06:25;;;;;;;30.60;21.97;;;14.10;98.30;;;;;;5102512;23;20530;-83
2021/04/21 09:08:27;;;;;;;33.90;23.90;;;14.20;98.20;;;;;;5100661;23;20838;-86
2021/04/21 09:10:30;;;;;;;31.80;22.90;;;14.20;98.00;;;;;;5100218;23;20447;-84
2021/04/21 09:12:33;;;;;;;29.63;21.17;;;14.30;97.90;;;;;;5099558;23;20458;-84
2021/04/21 09:14:36;;;;;;;31.20;22.23;;;14.10;98.20;;;;;;5100098;23;20461;-84
2021/04/21 09:16:38;;;;;;;31.90;22.10;;;14.00;98.30;;;;;;5100035;23;20525;-83
2021/04/21 09:18:50;;;;;;;26.75;21.25;;;13.80;98.30;;;;;;5100119;23;20457;-84
2021/04/21 09:20:52;;;;;;;26.10;21.40;;;13.60;98.30;;;;;;5099751;23;20446;-83
2021/04/21 09:23:11;;;;;;;32.43;22.20;;;13.50;98.30;;;;;;5100152;23;20960;-83
2021/04/21 09:25:34;;;;;;;26.63;18.63;;;13.50;98.30;;;;;;5076464;23;20457;-83
2021/04/21 09:27:37;;;;;;;25.03;19.20;;;13.50;98.30;;;;;;5100002;23;20446;-83
2021/04/21 09:29:45;;;;;;;32.13;20.90;;;13.60;98.30;;;;;;5092601;23;20478;-83
2021/04/21 09:31:48;;;;;;;26.67;19.93;;;13.40;98.30;;;;;;5101669;23;20581;-84
2021/04/21 09:34:07;;;;;;;27.20;19.03;;;13.30;98.30;;;;;;5105191;23;20813;-83
2021/04/21 09:36:10;;;;;;;27.07;20.00;;;13.40;98.30;;;;;;5092707;23;20549;-81
2021/04/21 09:38:15;;;;;;;26.00;19.17;;;13.40;98.30;;;;;;5101470;23;20514;-83
2021/04/21 09:40:38;;;;;;;23.57;19.30;;;13.30;98.30;;;;;;5100939;23;21035;-84
2021/04/21 09:42:41;;;;;;;24.60;17.73;;;13.40;98.30;;;;;;5093378;23;20490;-83
2021/04/21 09:44:47;;;;;;;21.80;15.60;;;13.30;98.30;;;;;;5101008;23;20849;-84
2021/04/21 09:46:50;;;;;;;22.93;16.73;;;13.30;98.30;;;;;;5100789;23;21541;-84
2021/04/21 09:48:52;;;;;;;20.70;15.40;;;13.20;98.30;;;;;;5093001;23;20486;-83
2021/04/21 09:51:00;;;;;;;23.63;16.30;;;13.20;98.30;;;;;;5101561;23;20478;-84
2021/04/21 09:53:17;;;;;;;21.83;16.10;;;13.20;98.30;;;;;;5101216;23;21007;-84
2021/04/21 09:55:21;;;;;;;17.93;14.27;;;13.30;98.30;;;;;;5100756;23;20450;-83
2021/04/21 09:57:27;;;;;;;20.03;14.53;;;13.20;98.30;;;;;;5100407;23;20455;-83
2021/04/21 09:59:30;;;;;;;20.97;14.50;;;13.20;98.30;;;;;;5100810;23;20757;-83
2021/04/21 10:01:34;;;;;;;19.40;13.73;;;13.40;98.30;;;;;;5093696;23;20465;-83
2021/04/21 10:03:36;;;;;;;18.47;13.50;;;13.50;98.30;;;;;;5094300;23;20482;-84
2021/04/21 10:05:41;;;;;;;19.33;13.60;;;13.60;98.30;;;;;;5094011;23;20527;-83
2021/04/21 10:07:43;;;;;;;19.03;13.73;;;13.60;97.80;;;;;;5101971;23;20455;-84
2021/04/21 10:09:47;;;;;;;26.70;14.60;;;13.60;97.40;;;;;;5101110;23;20443;-84
2021/04/21 10:11:50;;;;;;;20.00;13.90;;;13.40;97.60;;;;;;5093366;23;20463;-83
2021/04/21 10:13:54;;;;;;;16.70;13.20;;;13.40;97.90;;;;;;5101885;23;20442;-83
2021/04/21 10:15:57;;;;;;;17.70;13.20;;;13.30;98.10;;;;;;5092089;23;20459;-83
2021/04/21 10:17:59;;;;;;;15.77;13.27;;;13.20;98.30;;;;;;5099544;23;20454;-83
2021/04/21 10:20:03;;;;;;;16.83;13.10;;;13.20;98.30;;;;;;5100607;23;20455;-84
2021/04/21 10:22:08;;;;;;;15.73;12.90;;;13.30;98.30;;;;;;5099636;23;20450;-84
2021/04/21 10:24:11;;;;;;;15.93;13.90;;;13.40;98.20;;;;;;5100295;23;20482;-84
2021/04/21 10:26:18;;;;;;;18.37;12.83;;;13.40;97.90;;;;;;5097391;23;20447;-84
2021/04/21 10:28:23;;;;;;;15.60;11.60;;;13.40;97.80;;;;;;5099674;23;20442;-84
2021/04/21 10:30:26;;;;;;;14.10;11.83;;;13.50;97.60;;;;;;5099503;23;20470;-84
2021/04/21 10:32:41;;;;;;;13.70;10.70;;;13.60;97.40;;;;;;5093652;23;21020;-84
2021/04/21 10:34:51;;;;;;;18.30;14.20;;;13.90;96.90;;;;;;5094365;23;20450;-83
2021/04/21 10:36:53;;;;;;;11.83;9.90;;;14.20;95.80;;;;;;5098612;23;20537;-84
2021/04/21 10:39:11;;;;;;;13.40;10.33;;;14.40;92.70;;;;;;5098913;23;20454;-84
2021/04/21 10:41:25;;;;;;;14.93;9.70;;;14.10;92.30;;;;;;5097166;23;20454;-84
2021/04/21 10:43:42;;;;;;;9.33;8.40;;;13.90;92.90;;;;;;5105566;23;20489;-84
2021/04/21 10:45:48;;;;;;;9.63;8.63;;;13.60;93.40;;;;;;5090780;23;20464;-83
2021/04/21 10:47:52;;;;;;;11.30;8.43;;;13.40;94.20;;;;;;5094189;23;20450;-84
2021/04/21 10:49:58;;;;;;;11.43;7.30;;;13.60;94.10;;;;;;5102716;23;20443;-84
2021/04/21 10:52:10;;;;;;;10.20;7.40;;;13.70;93.80;;;;;;5103103;23;20511;-83
2021/04/21 10:54:12;;;;;;;8.07;7.27;;;13.90;92.90;;;;;;5095230;23;20943;-84
2021/04/21 10:56:21;;;;;;;8.07;7.30;;;13.90;92.20;;;;;;5102382;23;20446;-85